createdAt,value
2022-10-27T00:01:23.762Z,8.73
2022-10-27T00:03:52.307Z,7.93
2022-10-27T00:06:20.343Z,9.27
2022-10-27T00:08:50.229Z,9.70
2022-10-27T00:11:20.578Z,10.60
2022-10-27T00:13:48.890Z,6.13
2022-10-27T00:16:17.389Z,10.30
2022-10-27T00:18:46.533Z,10.67
2022-10-27T00:21:16.648Z,6.80
2022-10-27T00:23:45.080Z,11.77
2022-10-27T00:26:15.146Z,8.73
2022-10-27T00:28:45.280Z,7.77
2022-10-27T00:31:15.504Z,6.53
2022-10-27T00:33:44.321Z,9.77
2022-10-27T00:36:14.859Z,13.53
2022-10-27T00:38:43.345Z,8.33
2022-10-27T00:41:28.580Z,9.53
2022-10-27T00:43:59.117Z,7.83
2022-10-27T00:46:35.293Z,12.67
2022-10-27T00:49:07.307Z,9.27
2022-10-27T00:51:35.819Z,11.40
2022-10-27T00:54:04.006Z,7.00
2022-10-27T00:56:32.564Z,14.37
2022-10-27T00:59:02.327Z,11.57
2022-10-27T01:01:30.506Z,11.43
2022-10-27T01:03:58.787Z,9.10
2022-10-27T01:06:27.535Z,7.70
2022-10-27T01:08:56.095Z,8.43
2022-10-27T01:11:24.169Z,11.53
2022-10-27T01:13:52.339Z,11.80
2022-10-27T01:16:29.322Z,10.07
2022-10-27T01:19:07.462Z,7.90
2022-10-27T01:21:56.244Z,10.03
2022-10-27T01:24:48.640Z,9.63
2022-10-27T01:27:31.304Z,12.90
2022-10-27T01:30:06.232Z,10.73
2022-10-27T01:32:52.895Z,14.00
2022-10-27T01:35:29.192Z,11.80
2022-10-27T01:38:07.525Z,8.10
2022-10-27T01:40:40.759Z,9.57
2022-10-27T01:43:13.630Z,10.40
2022-10-27T01:45:43.653Z,9.33
2022-10-27T01:48:14.520Z,11.53
2022-10-27T01:51:00.540Z,9.10
2022-10-27T01:53:31.490Z,10.27
2022-10-27T01:56:16.151Z,11.27
2022-10-27T01:59:04.679Z,10.20
2022-10-27T02:01:51.306Z,10.53
2022-10-27T02:04:27.271Z,10.80
2022-10-27T02:06:59.891Z,11.30
2022-10-27T02:09:36.556Z,10.73
2022-10-27T02:12:11.140Z,10.90
2022-10-27T02:14:39.171Z,12.07
2022-10-27T02:17:09.377Z,15.27
2022-10-27T02:19:41.311Z,13.40
2022-10-27T02:22:10.644Z,8.83
2022-10-27T02:24:38.660Z,12.47
2022-10-27T02:27:12.486Z,12.83
2022-10-27T02:29:42.987Z,18.57
2022-10-27T02:32:14.154Z,12.47
2022-10-27T02:34:45.447Z,13.80
2022-10-27T02:37:20.451Z,15.50
2022-10-27T02:39:48.707Z,13.63
2022-10-27T02:42:16.700Z,13.93
2022-10-27T02:44:44.844Z,9.83
2022-10-27T02:47:12.837Z,10.57
2022-10-27T02:49:40.945Z,9.97
2022-10-27T02:52:10.342Z,11.10
2022-10-27T02:54:38.695Z,14.23
2022-10-27T02:57:06.710Z,12.10
2022-10-27T02:59:35.112Z,12.27
2022-10-27T03:02:03.219Z,11.83
2022-10-27T03:04:31.271Z,14.80
2022-10-27T03:06:59.302Z,12.00
2022-10-27T03:09:28.778Z,9.50
2022-10-27T03:11:56.795Z,11.20
2022-10-27T03:14:24.881Z,12.27
2022-10-27T03:16:52.976Z,8.57
2022-10-27T03:19:20.950Z,9.43
2022-10-27T03:21:48.930Z,13.37
2022-10-27T03:24:17.045Z,12.63
2022-10-27T03:26:46.455Z,11.23
2022-10-27T03:29:14.564Z,9.87
2022-10-27T03:31:42.561Z,9.70
2022-10-27T03:34:10.603Z,10.40
2022-10-27T03:36:38.994Z,8.70
2022-10-27T03:39:07.220Z,9.87
2022-10-27T03:41:35.216Z,7.43
2022-10-27T03:44:04.773Z,10.83
2022-10-27T03:46:32.805Z,10.37
2022-10-27T03:49:00.789Z,9.97
2022-10-27T03:51:29.096Z,9.27
2022-10-27T03:53:58.192Z,11.60
2022-10-27T03:56:26.263Z,9.97
2022-10-27T03:58:54.296Z,10.77
2022-10-27T04:01:24.196Z,9.70
2022-10-27T04:03:52.311Z,9.37
2022-10-27T04:06:20.327Z,13.10
2022-10-27T04:08:48.518Z,11.93
2022-10-27T04:11:16.602Z,12.23
2022-10-27T04:13:44.653Z,10.70
2022-10-27T04:16:12.645Z,14.60
2022-10-27T04:18:42.105Z,10.10
2022-10-27T04:21:10.103Z,12.30
2022-10-27T04:23:38.094Z,15.10
2022-10-27T04:26:06.379Z,10.13
2022-10-27T04:28:34.677Z,9.97
2022-10-27T04:31:02.702Z,9.67
2022-10-27T04:33:30.772Z,7.30
2022-10-27T04:36:00.397Z,10.90
2022-10-27T04:38:29.077Z,8.73
2022-10-27T04:41:01.632Z,9.67
2022-10-27T04:43:30.130Z,11.13
2022-10-27T04:45:58.151Z,9.07
2022-10-27T04:48:26.155Z,9.47
2022-10-27T04:50:54.193Z,10.00
2022-10-27T04:53:23.545Z,9.17
2022-10-27T04:55:52.506Z,12.53
2022-10-27T04:58:20.481Z,9.20
2022-10-27T05:00:48.656Z,9.43
2022-10-27T05:03:16.770Z,8.17
2022-10-27T05:05:44.785Z,11.90
2022-10-27T05:08:13.730Z,9.17
2022-10-27T05:10:43.089Z,9.80
2022-10-27T05:13:11.079Z,8.90
2022-10-27T05:15:39.065Z,10.43
2022-10-27T05:18:10.079Z,12.27
2022-10-27T05:20:38.560Z,9.67
2022-10-27T05:23:07.037Z,8.30
2022-10-27T05:25:35.779Z,11.60
2022-10-27T05:28:06.122Z,7.93
2022-10-27T05:30:34.138Z,10.10
2022-10-27T05:33:02.171Z,9.10
2022-10-27T05:35:30.223Z,12.10
2022-10-27T05:37:58.225Z,12.00
2022-10-27T05:40:26.288Z,9.80
2022-10-27T05:42:56.439Z,10.13
2022-10-27T05:45:27.071Z,12.00
2022-10-27T05:47:59.472Z,7.37
2022-10-27T05:50:28.191Z,6.37
2022-10-27T05:52:56.287Z,7.40
2022-10-27T05:55:25.578Z,10.97
2022-10-27T05:57:57.383Z,9.73
2022-10-27T06:00:30.640Z,6.00
2022-10-27T06:02:59.644Z,7.70
2022-10-27T06:05:28.568Z,9.43
2022-10-27T06:07:56.750Z,8.23
2022-10-27T06:10:25.289Z,6.73
2022-10-27T06:12:53.449Z,9.30
2022-10-27T06:15:21.459Z,9.20
2022-10-27T06:17:54.835Z,6.90
2022-10-27T06:20:23.113Z,9.33
2022-10-27T06:22:51.466Z,8.20
2022-10-27T06:25:19.659Z,11.40
2022-10-27T06:27:47.710Z,13.27
2022-10-27T06:30:15.801Z,7.90
2022-10-27T06:32:44.137Z,10.10
2022-10-27T06:35:13.623Z,11.30
2022-10-27T06:37:44.289Z,8.03
2022-10-27T06:40:14.046Z,8.00
2022-10-27T06:42:55.324Z,8.43
2022-10-27T06:45:30.446Z,8.30
2022-10-27T06:47:59.691Z,7.70
2022-10-27T06:50:29.247Z,10.83
2022-10-27T06:52:57.482Z,7.07
2022-10-27T06:55:25.547Z,7.87
2022-10-27T06:57:53.862Z,9.43
2022-10-27T07:00:22.885Z,6.93
2022-10-27T07:02:50.969Z,8.63
2022-10-27T07:05:19.303Z,8.17
2022-10-27T07:07:50.064Z,8.53
2022-10-27T07:10:19.439Z,7.87
2022-10-27T07:12:55.170Z,9.10
2022-10-27T07:15:23.719Z,11.60
2022-10-27T07:17:59.096Z,11.73
2022-10-27T07:20:28.923Z,8.67
2022-10-27T07:22:58.828Z,12.57
2022-10-27T07:25:27.377Z,12.00
2022-10-27T07:27:56.487Z,17.70
2022-10-27T07:30:27.530Z,16.03
2022-10-27T07:32:55.932Z,18.30
2022-10-27T07:35:24.239Z,14.53
2022-10-27T07:37:53.070Z,17.57
2022-10-27T07:40:28.586Z,21.27
2022-10-27T07:43:05.387Z,20.63
2022-10-27T07:45:37.343Z,17.60
2022-10-27T07:48:06.452Z,21.43
2022-10-27T07:50:34.694Z,21.63
2022-10-27T07:53:03.204Z,19.70
2022-10-27T07:55:35.869Z,21.57
2022-10-27T07:58:06.049Z,19.27
2022-10-27T08:00:34.949Z,19.00
2022-10-27T08:03:04.029Z,16.00
2022-10-27T08:05:33.858Z,16.90
2022-10-27T08:08:03.713Z,19.90
2022-10-27T08:10:34.005Z,15.80
2022-10-27T08:13:02.095Z,17.83
2022-10-27T08:15:30.461Z,15.20
2022-10-27T08:18:01.766Z,15.63
2022-10-27T08:20:32.095Z,15.27
2022-10-27T08:23:01.963Z,12.07
2022-10-27T08:25:30.523Z,16.60
2022-10-27T08:28:00.772Z,15.57
2022-10-27T08:30:33.766Z,15.77
2022-10-27T08:33:04.832Z,12.80
2022-10-27T08:35:33.986Z,18.10
2022-10-27T08:38:02.963Z,13.57
2022-10-27T08:40:37.413Z,12.30
2022-10-27T08:43:27.484Z,14.80
2022-10-27T08:46:00.375Z,14.67
2022-10-27T08:48:29.496Z,10.23
2022-10-27T08:50:57.575Z,13.73
2022-10-27T08:53:30.729Z,9.37
2022-10-27T08:56:04.339Z,11.67
2022-10-27T08:58:37.859Z,10.17
2022-10-27T09:01:17.250Z,12.60
2022-10-27T09:04:00.982Z,12.83
2022-10-27T09:06:32.103Z,26.93
2022-10-27T09:09:06.933Z,22.73
2022-10-27T09:11:44.961Z,30.30
2022-10-27T09:14:32.725Z,22.80
2022-10-27T09:17:05.391Z,10.37
2022-10-27T09:19:44.975Z,11.87
2022-10-27T09:22:18.950Z,13.32
2022-10-27T09:24:54.001Z,9.80
2022-10-27T09:27:22.609Z,7.50
2022-10-27T09:29:53.718Z,9.23
2022-10-27T09:32:25.097Z,8.63
2022-10-27T09:34:57.117Z,10.63
2022-10-27T09:37:25.431Z,8.30
2022-10-27T09:39:54.663Z,11.05
2022-10-27T09:42:23.090Z,7.68
2022-10-27T09:44:56.054Z,6.95
2022-10-27T09:50:00.494Z,8.98
2022-10-27T09:52:34.435Z,9.48
2022-10-27T09:55:02.485Z,8.40
2022-10-27T09:57:35.119Z,10.60
2022-10-27T10:00:07.960Z,7.72
2022-10-27T10:02:39.092Z,8.82
2022-10-27T10:05:21.158Z,9.18
2022-10-27T10:07:49.429Z,10.05
2022-10-27T10:10:27.132Z,7.13
2022-10-27T10:13:14.120Z,11.07
2022-10-27T10:15:41.616Z,6.35
2022-10-27T10:18:25.105Z,7.78
2022-10-27T10:20:59.078Z,10.07
2022-10-27T10:23:28.913Z,10.50
2022-10-27T10:25:59.238Z,6.25
2022-10-27T10:28:34.560Z,8.05
2022-10-27T10:31:06.104Z,8.32
2022-10-27T10:33:38.458Z,7.22
2022-10-27T10:36:20.262Z,8.27
2022-10-27T10:38:51.606Z,6.38
2022-10-27T10:41:21.214Z,9.13
2022-10-27T10:44:09.395Z,9.40
2022-10-27T10:46:40.013Z,5.65
2022-10-27T10:49:20.884Z,4.93
2022-10-27T10:51:52.861Z,9.27
2022-10-27T10:54:25.133Z,7.50
2022-10-27T10:56:54.837Z,5.00
2022-10-27T10:59:27.376Z,6.15
2022-10-27T11:02:02.294Z,7.50
2022-10-27T11:04:35.051Z,8.68
2022-10-27T11:07:06.199Z,7.38
2022-10-27T11:09:40.430Z,9.02
2022-10-27T11:12:27.334Z,7.32
2022-10-27T11:14:56.873Z,3.47
2022-10-27T11:17:26.951Z,5.30
2022-10-27T11:19:57.999Z,5.10
2022-10-27T11:22:28.189Z,5.18
2022-10-27T11:25:03.076Z,6.40
2022-10-27T11:27:40.084Z,5.97
2022-10-27T11:30:21.637Z,3.35
2022-10-27T11:32:59.598Z,8.90
2022-10-27T11:35:34.744Z,6.45
2022-10-27T11:38:09.074Z,7.00
2022-10-27T11:40:47.542Z,7.28
2022-10-27T11:43:22.302Z,4.90
2022-10-27T11:45:56.205Z,4.72
2022-10-27T11:48:28.801Z,5.78
2022-10-27T11:51:04.443Z,9.48
2022-10-27T11:53:36.244Z,4.95
2022-10-27T11:56:28.457Z,4.05
2022-10-27T11:59:05.842Z,4.75
2022-10-27T12:01:47.322Z,7.75
2022-10-27T12:04:26.601Z,4.85
2022-10-27T12:07:05.662Z,3.22
2022-10-27T12:09:45.746Z,6.63
2022-10-27T12:12:20.183Z,5.25
2022-10-27T12:14:57.072Z,8.85
2022-10-27T12:17:35.165Z,2.85
2022-10-27T12:20:05.497Z,5.80
2022-10-27T12:22:40.034Z,3.35
2022-10-27T12:25:12.201Z,7.03
2022-10-27T12:27:42.723Z,4.40
2022-10-27T12:30:15.351Z,3.40
2022-10-27T12:32:49.905Z,3.35
2022-10-27T12:35:23.363Z,6.28
2022-10-27T12:38:00.275Z,3.30
2022-10-27T12:40:34.775Z,4.10
2022-10-27T12:43:12.716Z,3.58
2022-10-27T12:45:55.395Z,4.10
2022-10-27T12:48:33.871Z,4.72
2022-10-27T12:51:13.755Z,7.47
2022-10-27T12:53:47.444Z,5.93
2022-10-27T12:56:29.367Z,7.53
2022-10-27T12:59:10.247Z,3.60
2022-10-27T13:01:48.635Z,4.25
2022-10-27T13:04:52.737Z,4.28
2022-10-27T13:08:03.297Z,3.55
2022-10-27T13:11:02.891Z,3.88
2022-10-27T13:13:51.466Z,3.35
2022-10-27T13:16:27.418Z,4.65
2022-10-27T13:19:06.284Z,6.88
2022-10-27T13:21:40.258Z,6.18
2022-10-27T13:24:19.254Z,8.20
2022-10-27T13:26:54.714Z,4.85
2022-10-27T13:29:34.966Z,4.15
2022-10-27T13:32:32.910Z,3.42
2022-10-27T13:35:30.134Z,3.28
2022-10-27T13:38:22.308Z,4.90
2022-10-27T13:40:51.351Z,2.47
2022-10-27T13:43:59.140Z,4.45
2022-10-27T13:47:11.919Z,5.18
2022-10-27T13:50:02.091Z,3.60
2022-10-27T13:52:34.044Z,3.92
2022-10-27T13:55:33.500Z,4.88
2022-10-27T13:58:41.318Z,6.35
2022-10-27T14:01:29.079Z,3.90
2022-10-27T14:04:18.722Z,2.95
2022-10-27T14:06:48.919Z,5.40
2022-10-27T14:09:24.527Z,3.38
2022-10-27T14:11:56.330Z,4.03
2022-10-27T14:14:29.093Z,5.88
2022-10-27T14:17:00.742Z,4.50
2022-10-27T14:19:31.357Z,4.28
2022-10-27T14:22:00.538Z,4.18
2022-10-27T14:24:34.716Z,3.80
2022-10-27T14:27:04.105Z,4.80
2022-10-27T14:29:34.874Z,3.72
2022-10-27T14:32:15.666Z,3.75
2022-10-27T14:34:43.661Z,6.50
2022-10-27T14:37:18.352Z,3.60
2022-10-27T14:39:48.604Z,4.82
2022-10-27T14:42:22.235Z,8.88
2022-10-27T14:44:56.736Z,8.27
2022-10-27T14:50:04.338Z,5.13
2022-10-27T14:52:40.329Z,6.07
2022-10-27T14:55:18.922Z,6.47
2022-10-27T14:57:51.925Z,4.38
2022-10-27T15:00:26.216Z,9.05
2022-10-27T15:02:57.865Z,5.60
2022-10-27T15:05:27.594Z,9.73
2022-10-27T15:07:57.659Z,3.65
2022-10-27T15:10:28.059Z,4.38
2022-10-27T15:12:58.519Z,4.97
2022-10-27T15:15:32.378Z,5.47
2022-10-27T15:18:05.785Z,6.18
2022-10-27T15:20:35.952Z,3.22
2022-10-27T15:23:04.753Z,4.45
2022-10-27T15:25:33.142Z,5.63
2022-10-27T15:28:02.601Z,6.47
2022-10-27T15:30:30.740Z,7.53
2022-10-27T15:32:58.834Z,7.40
2022-10-27T15:35:33.428Z,5.07
2022-10-27T15:38:02.502Z,5.65
2022-10-27T15:40:45.196Z,5.68
2022-10-27T15:43:23.750Z,4.32
2022-10-27T15:45:53.937Z,6.15
2022-10-27T15:48:34.115Z,8.38
2022-10-27T15:51:06.549Z,6.20
2022-10-27T15:53:37.408Z,3.95
2022-10-27T15:56:07.014Z,4.40
2022-10-27T15:58:36.871Z,5.20
2022-10-27T16:01:08.207Z,7.65
2022-10-27T16:03:39.802Z,9.38
2022-10-27T16:06:26.304Z,3.90
2022-10-27T16:08:55.463Z,4.65
2022-10-27T16:11:25.409Z,4.78
2022-10-27T16:13:56.488Z,5.05
2022-10-27T16:16:25.141Z,7.03
2022-10-27T16:18:53.786Z,4.40
2022-10-27T16:21:28.903Z,5.95
2022-10-27T16:23:59.283Z,5.45
2022-10-27T16:26:28.976Z,5.28
2022-10-27T16:29:01.159Z,6.93
2022-10-27T16:31:30.297Z,10.80
2022-10-27T16:33:59.100Z,9.40
2022-10-27T16:36:28.554Z,9.15
2022-10-27T16:38:56.597Z,7.60
2022-10-27T16:41:28.542Z,9.15
2022-10-27T16:43:57.043Z,7.40
2022-10-27T16:46:25.102Z,6.68
2022-10-27T16:48:53.076Z,4.57
2022-10-27T16:51:21.110Z,5.90
2022-10-27T16:53:50.587Z,7.85
2022-10-27T16:56:18.665Z,4.18
2022-10-27T16:58:47.284Z,5.33
2022-10-27T17:01:17.322Z,6.70
2022-10-27T17:03:45.733Z,7.47
2022-10-27T17:06:16.932Z,5.97
2022-10-27T17:08:44.964Z,6.80
2022-10-27T17:11:16.253Z,5.20
2022-10-27T17:13:44.393Z,5.53
2022-10-27T17:16:14.312Z,8.20
2022-10-27T17:18:43.379Z,11.32
2022-10-27T17:21:14.036Z,11.20
2022-10-27T17:23:44.611Z,9.07
2022-10-27T17:26:15.242Z,12.47
2022-10-27T17:28:46.336Z,8.73
2022-10-27T17:31:17.849Z,5.80
2022-10-27T17:33:47.438Z,8.55
2022-10-27T17:36:16.351Z,7.27
2022-10-27T17:38:44.512Z,9.20
2022-10-27T17:41:14.111Z,15.47
2022-10-27T17:43:42.234Z,9.80
2022-10-27T17:46:13.418Z,9.77
2022-10-27T17:48:43.621Z,9.67
2022-10-27T17:51:13.517Z,6.27
2022-10-27T17:53:42.602Z,6.40
2022-10-27T17:56:13.756Z,6.70
2022-10-27T17:58:43.555Z,4.33
2022-10-27T18:01:15.991Z,5.83
2022-10-27T18:03:45.224Z,3.33
2022-10-27T18:06:15.113Z,3.50
2022-10-27T18:08:43.322Z,4.63
2022-10-27T18:11:13.551Z,4.60
2022-10-27T18:13:44.353Z,3.73
2022-10-27T18:16:22.370Z,5.07
2022-10-27T18:18:51.282Z,4.83
2022-10-27T18:21:20.170Z,3.67
2022-10-27T18:23:50.613Z,9.17
2022-10-27T18:26:19.266Z,8.03
2022-10-27T18:28:49.571Z,6.00
2022-10-27T18:31:20.682Z,4.67
2022-10-27T18:33:48.891Z,8.57
2022-10-27T18:36:18.974Z,4.70
2022-10-27T18:38:47.255Z,9.40
2022-10-27T18:41:17.547Z,9.77
2022-10-27T18:43:49.878Z,10.23
2022-10-27T18:46:19.291Z,10.80
2022-10-27T18:48:49.353Z,8.37
2022-10-27T18:51:19.074Z,5.17
2022-10-27T18:53:47.616Z,7.83
2022-10-27T18:56:16.643Z,7.23
2022-10-27T18:58:45.956Z,6.43
2022-10-27T19:01:16.568Z,6.83
2022-10-27T19:03:46.494Z,5.93
2022-10-27T19:06:16.373Z,6.43
2022-10-27T19:08:44.382Z,7.20
2022-10-27T19:11:14.393Z,10.60
2022-10-27T19:13:42.996Z,13.83
2022-10-27T19:16:14.125Z,11.93
2022-10-27T19:18:43.988Z,8.27
2022-10-27T19:21:15.714Z,8.90
2022-10-27T19:23:44.266Z,7.37
2022-10-27T19:26:13.990Z,10.33
2022-10-27T19:28:43.330Z,8.53
2022-10-27T19:31:16.928Z,8.20
2022-10-27T19:33:47.116Z,8.40
2022-10-27T19:36:18.624Z,10.27
2022-10-27T19:38:46.856Z,6.97
2022-10-27T19:41:17.119Z,11.30
2022-10-27T19:43:48.782Z,7.27
2022-10-27T19:46:18.375Z,7.60
2022-10-27T19:48:51.358Z,6.40
2022-10-27T19:51:22.390Z,6.57
2022-10-27T19:53:50.815Z,7.67
2022-10-27T19:56:19.991Z,6.60
2022-10-27T19:58:51.021Z,8.30
2022-10-27T20:01:21.119Z,7.03
2022-10-27T20:03:50.908Z,6.07
2022-10-27T20:06:19.663Z,8.07
2022-10-27T20:08:54.992Z,5.37
2022-10-27T20:11:25.986Z,8.33
2022-10-27T20:13:55.485Z,5.03
2022-10-27T20:16:25.898Z,6.47
2022-10-27T20:18:56.230Z,5.87
2022-10-27T20:21:24.199Z,4.80
2022-10-27T20:23:52.194Z,9.07
2022-10-27T20:26:35.413Z,6.07
2022-10-27T20:29:03.708Z,6.67
2022-10-27T20:31:31.682Z,6.37
2022-10-27T20:34:01.250Z,5.17
2022-10-27T20:36:29.185Z,8.20
2022-10-27T20:38:58.247Z,6.43
2022-10-27T20:41:27.650Z,8.53
2022-10-27T20:43:56.524Z,8.77
2022-10-27T20:46:25.502Z,6.07
2022-10-27T20:48:54.846Z,8.10
2022-10-27T20:51:25.562Z,4.77
2022-10-27T20:53:53.809Z,11.10
2022-10-27T20:56:23.213Z,6.90
2022-10-27T20:58:51.637Z,9.10
2022-10-27T21:01:28.000Z,5.40
2022-10-27T21:03:56.557Z,8.20
2022-10-27T21:06:26.220Z,5.03
2022-10-27T21:08:55.337Z,5.90
2022-10-27T21:11:23.534Z,6.20
2022-10-27T21:13:51.834Z,7.30
2022-10-27T21:16:19.911Z,4.93
2022-10-27T21:18:50.723Z,6.00
2022-10-27T21:21:19.801Z,8.80
2022-10-27T21:23:49.619Z,7.03
2022-10-27T21:26:18.532Z,6.47
2022-10-27T21:28:51.373Z,6.53
2022-10-27T21:31:20.002Z,5.90
2022-10-27T21:33:48.073Z,7.10
2022-10-27T21:36:16.101Z,7.40
2022-10-27T21:38:46.257Z,7.43
2022-10-27T21:41:17.357Z,5.37
2022-10-27T21:43:47.147Z,8.60
2022-10-27T21:46:17.247Z,5.77
2022-10-27T21:48:45.328Z,5.50
2022-10-27T21:51:13.850Z,10.33
2022-10-27T21:53:42.074Z,8.77
2022-10-27T21:56:11.838Z,6.87
2022-10-27T21:58:42.015Z,6.40
2022-10-27T22:01:11.629Z,7.33
2022-10-27T22:03:40.905Z,8.53
2022-10-27T22:06:14.315Z,8.47
2022-10-27T22:08:42.455Z,7.13
2022-10-27T22:11:13.631Z,7.73
2022-10-27T22:13:43.163Z,7.77
2022-10-27T22:16:12.805Z,8.77
2022-10-27T22:18:42.367Z,8.90
2022-10-27T22:21:12.750Z,9.77
2022-10-27T22:23:41.320Z,10.47
2022-10-27T22:26:10.856Z,8.33
2022-10-27T22:28:39.653Z,9.70
2022-10-27T22:31:10.061Z,6.47
2022-10-27T22:33:43.121Z,6.43
2022-10-27T22:36:15.681Z,8.67
2022-10-27T22:38:44.080Z,10.07
2022-10-27T22:41:13.811Z,8.13
2022-10-27T22:43:42.143Z,10.97
2022-10-27T22:46:17.352Z,8.70
2022-10-27T22:48:45.738Z,8.17
2022-10-27T22:51:15.757Z,8.77
2022-10-27T22:53:44.757Z,9.93
2022-10-27T22:56:15.063Z,8.00
2022-10-27T22:58:44.120Z,5.47
2022-10-27T23:01:15.360Z,9.07
2022-10-27T23:03:43.547Z,10.23
2022-10-27T23:06:11.815Z,10.57
2022-10-27T23:08:39.743Z,9.33
2022-10-27T23:11:08.608Z,15.50
2022-10-27T23:13:38.535Z,10.60
2022-10-27T23:16:08.914Z,10.77
2022-10-27T23:18:40.854Z,9.00
2022-10-27T23:21:11.862Z,13.07
2022-10-27T23:23:39.811Z,12.33
2022-10-27T23:26:07.873Z,8.70
2022-10-27T23:28:35.824Z,11.63
2022-10-27T23:31:03.955Z,9.00
2022-10-27T23:33:32.074Z,14.27
2022-10-27T23:36:02.662Z,9.23
2022-10-27T23:38:30.660Z,11.10
2022-10-27T23:40:59.528Z,9.30
2022-10-27T23:43:28.829Z,10.30
2022-10-27T23:46:01.510Z,11.47
2022-10-27T23:48:30.331Z,10.07
2022-10-27T23:50:58.362Z,9.37
2022-10-27T23:53:28.682Z,12.13
2022-10-27T23:55:58.543Z,7.60
2022-10-27T23:58:28.955Z,9.27
